Aérodrome :
LOGIN :

S'inscrire | Disclaimer

   EN    FR    IT 

 










Légende :    VFR   VFR Marginal   IFR   IFR Intensif   IFR Très Intensif
Visi : 
Plafond : 
>= 8 km
>= 3000ft
5 à 8 km
1000 à 3000 ft
1500m à 5 km
500 à 1000 ft
800 à 1500m
200 à 500 ft
< 800m
< 200 ft
Symboles :   Orages  Brouillard  Fortes neiges  Fortes précipitations  Vent > 20 kt
SIGMETs :   Divers  Orages  Givrage  Turbulence  Onde Orograph.  Cendres Volcan.






- Altitude de l'aérodrome : 39 ft
- Code IATA : ANR


EBAW - Anvers / Antwerpen Deurne

DERNIER METAR :
  • 271050Z 12003KT 090V160 4500 BR BKN006 08/06 Q1019 BECMG 6000 NSW BKN009

METARs EXPIRÉS :
  • 271020Z 13003KT 4500 BR BKN006 07/05 Q1020 BECMG 6000 NSW BKN008
  • 270950Z 13003KT 4500 BR BKN005 07/05 Q1020 BECMG 6000 NSW BKN008
  • 270920Z 09003KT 050V110 4500 BR BKN005 07/06 Q1020 BECMG 6000 NSW BKN008
  • 270850Z 08003KT 040V100 4000 BR BKN004 07/06 Q1019 NOSIG

TAF TAF EBAW
Valide du 27 à 09h jusqu'au 27 à 18h UTC


270810Z 2709/2718 08003KT 4000 BR SCT006 BKN015
PROB40
TEMPO 2709/2710 2500 BKN004
BECMG 2710/2712 8000 NSW SCT018



MET'MAP, la Météo Aéronautique d'un coup d'oeil ! - Copyright ORBIFLY Décembre 2007 - Disclaimer

ORBIFLY MET'MAP TEAM :

Programmation & Développement : Alexandra Zaïnal
Sur une idée originale de : Baudouin d'Aumeries
Assistance à la programmation : Marc-Olivier Méhu
Soutien technique & logistique : Manuel Goepfert

Contact : metmap@orbifly.com




SOURCES & CREDITS :

   NOAA